Ruby, LA (71365)

8:28 PM CDT on August 03, 2015 (GMT -0500)
Hwy 454 Rapides/Avoyelles Parish Line | | Change Station
CLOSE
Current Station
Personal Weather Station
Location: Ruby, LA
Elevation: 105 ft
Nearby Weather Stations

Elev 105 ft 31.16 °N, 92.22 °W | Updated 5 minutes ago

Clear
Clear
84.6 °F
Feels Like 90 °F
N
0.0
Wind Variable Wind from SSE

Today
High -- | Low -- °F
--% Chance of Precip.
Yesterday
High -- | Low -- °F
Precip. -- in
6:26 AM 8:02 PM
Waning Gibbous, 82% visible
Pressure 29.87 in
Visibility 10.0 miles
Clouds Clear
Heat Index 90 °F
Dew Point 71 °F
Humidity 64%
Rainfall 0.00 in
Snow Depth Not available.
UV 0 out of 12
Pollen 4.70 out of 12
Air Quality Not available.
Flu Activity Not available.
METAR KESF 040053Z AUTO 00000KT 10SM CLR 30/22 A2987 RMK AO2 SLP114 T03000222

More Conditions Fewer Conditions

Pressure 29.87 in
Visibility 10.0 miles
Clouds Clear
Heat Index 90 °F
Dew Point 71 °F
Humidity 64%
Rainfall 0.00 in
Snow Depth Not available.
UV 0 out of 12
Pollen 4.70 out of 12
Air Quality Not available.
Flu Activity Not available.
METAR KESF 040053Z AUTO 00000KT 10SM CLR 30/22 A2987 RMK AO2 SLP114 T03000222

More Conditions Fewer Conditions

10-Day Weather Forecast

×

Almanac

Astronomy

Aug. 03, 2015 Rise Set
Actual Time
Civil Twilight
Nautical Twilight
Astronomical Twilight
Moon
Length of Visible Light
Length of Day
Tomorrow will be .
, % of the Moon is Illuminated

Today's Extremes

State Highs State Lows

Community

WunderPhotos

Upload Photos

1,843,814 photos uploaded!

WunderBlogs® & News

Nearby

Air Quality

  Air Quality AQ Index Pollutant
Not available.

Snow Depth

Station Depth Elevation

Earthquake Activity

City Distance Mag. Time & Date
Minimum magnitude displayed is 2.5.

Coastal Water Temperatures

Place Temperature

Stations

Nearby Weather Stations

Station Location Temp. Windchill Dew Point Humidity Wind Precip. Elev Updated Type